sensor_id;sensor_type;location;lat;lon;timestamp;P1;durP1;ratioP1;P2;durP2;ratioP2
28174;SDS011;59417;44.788;10.334;2023-02-25T00:02:07;34.42;;;20.58;;
28174;SDS011;59417;44.788;10.334;2023-02-25T00:05:05;37.90;;;19.00;;
28174;SDS011;59417;44.788;10.334;2023-02-25T00:07:42;29.17;;;19.63;;
28174;SDS011;59417;44.788;10.334;2023-02-25T00:10:22;30.40;;;19.25;;
28174;SDS011;59417;44.788;10.334;2023-02-25T00:12:56;32.92;;;19.90;;
28174;SDS011;59417;44.788;10.334;2023-02-25T00:15:39;40.25;;;19.65;;
28174;SDS011;59417;44.788;10.334;2023-02-25T00:18:27;33.40;;;19.77;;
28174;SDS011;59417;44.788;10.334;2023-02-25T00:21:15;40.05;;;19.15;;
28174;SDS011;59417;44.788;10.334;2023-02-25T00:23:44;38.25;;;18.55;;
28174;SDS011;59417;44.788;10.334;2023-02-25T00:26:17;30.45;;;17.60;;
28174;SDS011;59417;44.788;10.334;2023-02-25T00:28:58;31.73;;;17.38;;
28174;SDS011;59417;44.788;10.334;2023-02-25T00:31:31;33.42;;;17.05;;
28174;SDS011;59417;44.788;10.334;2023-02-25T00:34:11;33.97;;;17.90;;
28174;SDS011;59417;44.788;10.334;2023-02-25T00:36:45;37.75;;;23.73;;
28174;SDS011;59417;44.788;10.334;2023-02-25T00:39:12;47.95;;;27.48;;
28174;SDS011;59417;44.788;10.334;2023-02-25T00:41:50;47.08;;;27.85;;
28174;SDS011;59417;44.788;10.334;2023-02-25T00:44:33;49.88;;;29.73;;
28174;SDS011;59417;44.788;10.334;2023-02-25T00:47:15;46.45;;;29.75;;
28174;SDS011;59417;44.788;10.334;2023-02-25T00:49:55;57.20;;;33.88;;
28174;SDS011;59417;44.788;10.334;2023-02-25T00:52:25;54.60;;;35.35;;
28174;SDS011;59417;44.788;10.334;2023-02-25T00:55:02;55.45;;;34.58;;
28174;SDS011;59417;44.788;10.334;2023-02-25T00:57:29;59.45;;;35.03;;
28174;SDS011;59417;44.788;10.334;2023-02-25T00:59:55;58.35;;;36.42;;
28174;SDS011;59417;44.788;10.334;2023-02-25T01:02:33;56.30;;;36.55;;
28174;SDS011;59417;44.788;10.334;2023-02-25T01:05:23;61.35;;;37.72;;
28174;SDS011;59417;44.788;10.334;2023-02-25T01:08:02;59.58;;;38.75;;
28174;SDS011;59417;44.788;10.334;2023-02-25T01:10:34;60.28;;;38.83;;
28174;SDS011;59417;44.788;10.334;2023-02-25T01:13:00;58.65;;;38.28;;
28174;SDS011;59417;44.788;10.334;2023-02-25T01:15:30;70.85;;;38.88;;
28174;SDS011;59417;44.788;10.334;2023-02-25T01:18:14;61.65;;;37.88;;
28174;SDS011;59417;44.788;10.334;2023-02-25T01:20:45;65.00;;;40.30;;
28174;SDS011;59417;44.788;10.334;2023-02-25T01:23:40;63.35;;;40.00;;
28174;SDS011;59417;44.788;10.334;2023-02-25T01:26:15;69.93;;;40.65;;
28174;SDS011;59417;44.788;10.334;2023-02-25T01:28:43;66.30;;;38.65;;
28174;SDS011;59417;44.788;10.334;2023-02-25T01:31:18;67.00;;;41.13;;
28174;SDS011;59417;44.788;10.334;2023-02-25T01:34:05;67.28;;;41.10;;
28174;SDS011;59417;44.788;10.334;2023-02-25T01:36:35;65.30;;;40.53;;
28174;SDS011;59417;44.788;10.334;2023-02-25T01:39:04;71.63;;;42.05;;
28174;SDS011;59417;44.788;10.334;2023-02-25T01:41:31;63.83;;;41.22;;
28174;SDS011;59417;44.788;10.334;2023-02-25T01:46:33;66.85;;;40.58;;
28174;SDS011;59417;44.788;10.334;2023-02-25T01:49:02;59.80;;;41.22;;
28174;SDS011;59417;44.788;10.334;2023-02-25T01:51:37;65.70;;;42.28;;
28174;SDS011;59417;44.788;10.334;2023-02-25T01:54:02;64.43;;;40.50;;
28174;SDS011;59417;44.788;10.334;2023-02-25T01:56:33;64.18;;;41.13;;
28174;SDS011;59417;44.788;10.334;2023-02-25T01:59:02;68.88;;;42.45;;
28174;SDS011;59417;44.788;10.334;2023-02-25T02:01:43;72.53;;;41.80;;
28174;SDS011;59417;44.788;10.334;2023-02-25T02:04:18;70.63;;;42.30;;
28174;SDS011;59417;44.788;10.334;2023-02-25T02:07:04;69.53;;;41.10;;
28174;SDS011;59417;44.788;10.334;2023-02-25T02:09:44;62.70;;;42.40;;
28174;SDS011;59417;44.788;10.334;2023-02-25T02:12:28;63.00;;;42.53;;
28174;SDS011;59417;44.788;10.334;2023-02-25T02:15:00;72.05;;;42.00;;
28174;SDS011;59417;44.788;10.334;2023-02-25T02:17:32;68.72;;;42.58;;
28174;SDS011;59417;44.788;10.334;2023-02-25T02:20:18;65.93;;;40.60;;
28174;SDS011;59417;44.788;10.334;2023-02-25T02:28:39;61.03;;;39.78;;
28174;SDS011;59417;44.788;10.334;2023-02-25T02:31:30;66.80;;;40.08;;
28174;SDS011;59417;44.788;10.334;2023-02-25T02:45:12;64.43;;;40.95;;
28174;SDS011;59417;44.788;10.334;2023-02-25T02:47:45;69.30;;;41.95;;
28174;SDS011;59417;44.788;10.334;2023-02-25T02:50:19;63.22;;;43.40;;
28174;SDS011;59417;44.788;10.334;2023-02-25T02:52:57;69.05;;;43.50;;
28174;SDS011;59417;44.788;10.334;2023-02-25T02:55:30;70.70;;;43.75;;
28174;SDS011;59417;44.788;10.334;2023-02-25T02:58:03;68.78;;;42.25;;
28174;SDS011;59417;44.788;10.334;2023-02-25T03:00:41;69.90;;;43.60;;
28174;SDS011;59417;44.788;10.334;2023-02-25T03:03:13;68.60;;;43.25;;
28174;SDS011;59417;44.788;10.334;2023-02-25T03:05:43;70.57;;;44.42;;
28174;SDS011;59417;44.788;10.334;2023-02-25T03:08:35;65.30;;;45.38;;
28174;SDS011;59417;44.788;10.334;2023-02-25T03:11:06;66.72;;;43.72;;
28174;SDS011;59417;44.788;10.334;2023-02-25T03:16:25;72.07;;;44.35;;
28174;SDS011;59417;44.788;10.334;2023-02-25T03:19:05;79.25;;;48.38;;
28174;SDS011;59417;44.788;10.334;2023-02-25T03:21:42;76.53;;;47.08;;
28174;SDS011;59417;44.788;10.334;2023-02-25T03:24:40;69.03;;;46.42;;
28174;SDS011;59417;44.788;10.334;2023-02-25T03:27:25;72.47;;;44.22;;
28174;SDS011;59417;44.788;10.334;2023-02-25T03:30:11;75.13;;;44.72;;
28174;SDS011;59417;44.788;10.334;2023-02-25T03:32:40;69.25;;;44.22;;
28174;SDS011;59417;44.788;10.334;2023-02-25T03:35:13;73.10;;;45.35;;
28174;SDS011;59417;44.788;10.334;2023-02-25T03:40:11;73.10;;;42.90;;
28174;SDS011;59417;44.788;10.334;2023-02-25T03:42:42;73.47;;;45.13;;
28174;SDS011;59417;44.788;10.334;2023-02-25T03:45:12;70.93;;;43.53;;
28174;SDS011;59417;44.788;10.334;2023-02-25T03:47:40;70.40;;;43.28;;
28174;SDS011;59417;44.788;10.334;2023-02-25T03:50:15;71.38;;;42.42;;
28174;SDS011;59417;44.788;10.334;2023-02-25T03:52:51;69.20;;;40.92;;
28174;SDS011;59417;44.788;10.334;2023-02-25T03:55:38;66.95;;;40.53;;
28174;SDS011;59417;44.788;10.334;2023-02-25T03:58:05;57.35;;;37.35;;
28174;SDS011;59417;44.788;10.334;2023-02-25T04:00:33;59.83;;;40.33;;
28174;SDS011;59417;44.788;10.334;2023-02-25T04:03:01;57.78;;;35.78;;
28174;SDS011;59417;44.788;10.334;2023-02-25T04:05:29;60.20;;;38.30;;
28174;SDS011;59417;44.788;10.334;2023-02-25T04:07:55;62.90;;;39.50;;
28174;SDS011;59417;44.788;10.334;2023-02-25T04:10:24;61.47;;;39.15;;
28174;SDS011;59417;44.788;10.334;2023-02-25T04:12:50;59.38;;;35.58;;
28174;SDS011;59417;44.788;10.334;2023-02-25T04:15:17;50.88;;;32.92;;
28174;SDS011;59417;44.788;10.334;2023-02-25T04:17:45;57.17;;;34.63;;
28174;SDS011;59417;44.788;10.334;2023-02-25T04:20:12;50.30;;;33.30;;
28174;SDS011;59417;44.788;10.334;2023-02-25T04:22:40;53.53;;;32.22;;
28174;SDS011;59417;44.788;10.334;2023-02-25T04:25:08;52.97;;;32.15;;
28174;SDS011;59417;44.788;10.334;2023-02-25T04:27:47;46.08;;;31.08;;
28174;SDS011;59417;44.788;10.334;2023-02-25T04:30:13;49.58;;;29.42;;
28174;SDS011;59417;44.788;10.334;2023-02-25T04:32:42;43.35;;;26.88;;
28174;SDS011;59417;44.788;10.334;2023-02-25T04:35:10;42.97;;;28.15;;
28174;SDS011;59417;44.788;10.334;2023-02-25T04:37:42;47.17;;;31.77;;
28174;SDS011;59417;44.788;10.334;2023-02-25T04:40:16;54.95;;;32.25;;
28174;SDS011;59417;44.788;10.334;2023-02-25T04:42:45;43.60;;;28.92;;
28174;SDS011;59417;44.788;10.334;2023-02-25T04:45:11;43.05;;;27.95;;
28174;SDS011;59417;44.788;10.334;2023-02-25T04:47:39;44.17;;;27.15;;
28174;SDS011;59417;44.788;10.334;2023-02-25T04:50:05;49.47;;;26.38;;
28174;SDS011;59417;44.788;10.334;2023-02-25T04:52:33;47.10;;;27.40;;
28174;SDS011;59417;44.788;10.334;2023-02-25T04:55:00;44.70;;;29.90;;
28174;SDS011;59417;44.788;10.334;2023-02-25T04:57:25;51.03;;;29.15;;
28174;SDS011;59417;44.788;10.334;2023-02-25T04:59:51;43.05;;;27.23;;
28174;SDS011;59417;44.788;10.334;2023-02-25T05:02:19;45.47;;;27.77;;
28174;SDS011;59417;44.788;10.334;2023-02-25T05:04:45;50.05;;;25.67;;
28174;SDS011;59417;44.788;10.334;2023-02-25T05:07:13;46.03;;;26.55;;
28174;SDS011;59417;44.788;10.334;2023-02-25T05:09:38;43.78;;;27.13;;
28174;SDS011;59417;44.788;10.334;2023-02-25T05:12:05;42.45;;;27.05;;
28174;SDS011;59417;44.788;10.334;2023-02-25T05:14:30;46.83;;;28.02;;
28174;SDS011;59417;44.788;10.334;2023-02-25T05:16:57;46.70;;;30.25;;
28174;SDS011;59417;44.788;10.334;2023-02-25T05:19:23;49.75;;;29.17;;
28174;SDS011;59417;44.788;10.334;2023-02-25T05:21:53;50.35;;;29.48;;
28174;SDS011;59417;44.788;10.334;2023-02-25T05:24:19;44.25;;;29.35;;
28174;SDS011;59417;44.788;10.334;2023-02-25T05:26:47;57.55;;;32.13;;
28174;SDS011;59417;44.788;10.334;2023-02-25T05:29:13;63.42;;;34.63;;
28174;SDS011;59417;44.788;10.334;2023-02-25T05:31:39;49.40;;;33.53;;
28174;SDS011;59417;44.788;10.334;2023-02-25T05:34:10;64.15;;;40.00;;
28174;SDS011;59417;44.788;10.334;2023-02-25T05:36:41;51.28;;;33.95;;
28174;SDS011;59417;44.788;10.334;2023-02-25T05:39:10;61.28;;;35.88;;
28174;SDS011;59417;44.788;10.334;2023-02-25T05:41:46;53.92;;;34.63;;
28174;SDS011;59417;44.788;10.334;2023-02-25T05:44:13;52.10;;;33.15;;
28174;SDS011;59417;44.788;10.334;2023-02-25T05:46:41;56.70;;;35.97;;
28174;SDS011;59417;44.788;10.334;2023-02-25T05:49:07;61.58;;;35.05;;
28174;SDS011;59417;44.788;10.334;2023-02-25T05:51:33;60.00;;;35.92;;
28174;SDS011;59417;44.788;10.334;2023-02-25T05:53:59;69.00;;;39.10;;
28174;SDS011;59417;44.788;10.334;2023-02-25T05:56:25;70.68;;;40.08;;
28174;SDS011;59417;44.788;10.334;2023-02-25T05:58:52;67.50;;;39.42;;
28174;SDS011;59417;44.788;10.334;2023-02-25T06:01:23;55.75;;;36.92;;
28174;SDS011;59417;44.788;10.334;2023-02-25T06:03:53;59.22;;;37.30;;
28174;SDS011;59417;44.788;10.334;2023-02-25T06:06:23;63.10;;;36.35;;
28174;SDS011;59417;44.788;10.334;2023-02-25T06:08:51;49.38;;;33.47;;
28174;SDS011;59417;44.788;10.334;2023-02-25T06:11:19;55.60;;;34.38;;
28174;SDS011;59417;44.788;10.334;2023-02-25T06:13:51;55.90;;;34.50;;
28174;SDS011;59417;44.788;10.334;2023-02-25T06:16:18;60.33;;;37.67;;
28174;SDS011;59417;44.788;10.334;2023-02-25T06:18:45;56.58;;;34.33;;
28174;SDS011;59417;44.788;10.334;2023-02-25T06:21:13;58.70;;;33.78;;
28174;SDS011;59417;44.788;10.334;2023-02-25T06:23:48;54.00;;;33.03;;
28174;SDS011;59417;44.788;10.334;2023-02-25T06:26:17;59.00;;;33.35;;
28174;SDS011;59417;44.788;10.334;2023-02-25T06:28:47;58.80;;;33.22;;
28174;SDS011;59417;44.788;10.334;2023-02-25T06:31:17;54.45;;;34.47;;
28174;SDS011;59417;44.788;10.334;2023-02-25T06:34:12;57.85;;;33.58;;
28174;SDS011;59417;44.788;10.334;2023-02-25T06:36:50;56.78;;;30.92;;
28174;SDS011;59417;44.788;10.334;2023-02-25T06:39:20;59.78;;;31.98;;
28174;SDS011;59417;44.788;10.334;2023-02-25T06:41:57;62.35;;;33.53;;
28174;SDS011;59417;44.788;10.334;2023-02-25T06:44:30;54.42;;;34.70;;
28174;SDS011;59417;44.788;10.334;2023-02-25T06:46:57;60.15;;;33.70;;
28174;SDS011;59417;44.788;10.334;2023-02-25T06:49:33;58.38;;;37.42;;
28174;SDS011;59417;44.788;10.334;2023-02-25T06:52:12;64.10;;;35.83;;
28174;SDS011;59417;44.788;10.334;2023-02-25T06:54:38;71.53;;;40.15;;
28174;SDS011;59417;44.788;10.334;2023-02-25T06:57:06;66.13;;;39.58;;
28174;SDS011;59417;44.788;10.334;2023-02-25T06:59:32;64.53;;;38.03;;
28174;SDS011;59417;44.788;10.334;2023-02-25T07:02:00;75.85;;;42.65;;
28174;SDS011;59417;44.788;10.334;2023-02-25T07:04:28;72.78;;;41.55;;
28174;SDS011;59417;44.788;10.334;2023-02-25T07:06:54;72.78;;;43.97;;
28174;SDS011;59417;44.788;10.334;2023-02-25T07:09:20;72.85;;;41.70;;
28174;SDS011;59417;44.788;10.334;2023-02-25T07:11:52;74.70;;;44.83;;
28174;SDS011;59417;44.788;10.334;2023-02-25T07:17:52;73.63;;;41.28;;
28174;SDS011;59417;44.788;10.334;2023-02-25T07:21:15;74.03;;;43.60;;
28174;SDS011;59417;44.788;10.334;2023-02-25T07:27:38;82.50;;;48.28;;
28174;SDS011;59417;44.788;10.334;2023-02-25T07:30:29;79.70;;;47.28;;
28174;SDS011;59417;44.788;10.334;2023-02-25T07:42:09;97.40;;;53.65;;
28174;SDS011;59417;44.788;10.334;2023-02-25T07:46:03;90.72;;;54.22;;
28174;SDS011;59417;44.788;10.334;2023-02-25T07:49:07;93.32;;;54.67;;
28174;SDS011;59417;44.788;10.334;2023-02-25T07:51:36;97.07;;;56.78;;
28174;SDS011;59417;44.788;10.334;2023-02-25T07:54:02;98.25;;;56.58;;
28174;SDS011;59417;44.788;10.334;2023-02-25T07:56:34;100.07;;;54.55;;
28174;SDS011;59417;44.788;10.334;2023-02-25T07:59:00;94.75;;;57.53;;
28174;SDS011;59417;44.788;10.334;2023-02-25T08:01:27;98.97;;;57.70;;
28174;SDS011;59417;44.788;10.334;2023-02-25T08:04:02;107.20;;;63.78;;
28174;SDS011;59417;44.788;10.334;2023-02-25T08:09:30;106.45;;;66.07;;
28174;SDS011;59417;44.788;10.334;2023-02-25T08:12:06;123.35;;;67.78;;
28174;SDS011;59417;44.788;10.334;2023-02-25T08:14:36;121.82;;;68.65;;
28174;SDS011;59417;44.788;10.334;2023-02-25T08:20:29;112.95;;;66.18;;
28174;SDS011;59417;44.788;10.334;2023-02-25T08:23:26;115.95;;;68.05;;
28174;SDS011;59417;44.788;10.334;2023-02-25T08:26:48;112.68;;;65.40;;
28174;SDS011;59417;44.788;10.334;2023-02-25T08:29:39;113.93;;;66.43;;
28174;SDS011;59417;44.788;10.334;2023-02-25T08:32:17;112.47;;;62.67;;
28174;SDS011;59417;44.788;10.334;2023-02-25T08:34:53;110.32;;;66.10;;
28174;SDS011;59417;44.788;10.334;2023-02-25T08:37:29;114.10;;;63.15;;
28174;SDS011;59417;44.788;10.334;2023-02-25T08:39:55;101.78;;;61.53;;
28174;SDS011;59417;44.788;10.334;2023-02-25T08:42:21;113.32;;;62.53;;
28174;SDS011;59417;44.788;10.334;2023-02-25T08:44:48;107.28;;;62.22;;
28174;SDS011;59417;44.788;10.334;2023-02-25T08:47:27;109.05;;;63.97;;
28174;SDS011;59417;44.788;10.334;2023-02-25T08:50:09;110.50;;;64.78;;
28174;SDS011;59417;44.788;10.334;2023-02-25T08:52:59;100.05;;;61.60;;
28174;SDS011;59417;44.788;10.334;2023-02-25T08:59:46;110.43;;;59.58;;
28174;SDS011;59417;44.788;10.334;2023-02-25T09:02:15;107.70;;;63.20;;
28174;SDS011;59417;44.788;10.334;2023-02-25T09:04:43;99.45;;;58.20;;
28174;SDS011;59417;44.788;10.334;2023-02-25T09:07:09;104.85;;;60.38;;
28174;SDS011;59417;44.788;10.334;2023-02-25T09:09:38;103.55;;;60.78;;
28174;SDS011;59417;44.788;10.334;2023-02-25T09:12:04;101.18;;;59.50;;
28174;SDS011;59417;44.788;10.334;2023-02-25T09:14:35;96.45;;;58.55;;
28174;SDS011;59417;44.788;10.334;2023-02-25T09:17:01;94.18;;;54.65;;
28174;SDS011;59417;44.788;10.334;2023-02-25T09:19:28;97.68;;;56.83;;
28174;SDS011;59417;44.788;10.334;2023-02-25T09:21:54;101.53;;;56.50;;
28174;SDS011;59417;44.788;10.334;2023-02-25T09:24:19;95.75;;;54.63;;
28174;SDS011;59417;44.788;10.334;2023-02-25T09:26:45;94.40;;;54.38;;
28174;SDS011;59417;44.788;10.334;2023-02-25T09:29:12;86.03;;;49.92;;
28174;SDS011;59417;44.788;10.334;2023-02-25T09:31:38;84.85;;;49.42;;
28174;SDS011;59417;44.788;10.334;2023-02-25T09:34:05;81.15;;;47.20;;
28174;SDS011;59417;44.788;10.334;2023-02-25T09:36:35;85.40;;;49.33;;
28174;SDS011;59417;44.788;10.334;2023-02-25T09:39:01;82.30;;;45.47;;
28174;SDS011;59417;44.788;10.334;2023-02-25T09:46:37;79.43;;;43.72;;
28174;SDS011;59417;44.788;10.334;2023-02-25T09:49:22;77.03;;;45.47;;
28174;SDS011;59417;44.788;10.334;2023-02-25T09:58:31;65.57;;;40.75;;
28174;SDS011;59417;44.788;10.334;2023-02-25T10:14:54;76.10;;;43.60;;
28174;SDS011;59417;44.788;10.334;2023-02-25T10:20:50;83.65;;;43.63;;
28174;SDS011;59417;44.788;10.334;2023-02-25T10:23:28;73.35;;;45.38;;
28174;SDS011;59417;44.788;10.334;2023-02-25T10:29:28;71.18;;;42.17;;
28174;SDS011;59417;44.788;10.334;2023-02-25T10:31:48;73.03;;;39.78;;
28174;SDS011;59417;44.788;10.334;2023-02-25T10:34:21;68.32;;;39.58;;
28174;SDS011;59417;44.788;10.334;2023-02-25T10:37:01;68.60;;;37.67;;
28174;SDS011;59417;44.788;10.334;2023-02-25T10:39:34;75.28;;;39.03;;
28174;SDS011;59417;44.788;10.334;2023-02-25T10:42:09;66.95;;;39.10;;
28174;SDS011;59417;44.788;10.334;2023-02-25T10:45:00;73.93;;;41.65;;
28174;SDS011;59417;44.788;10.334;2023-02-25T10:51:45;72.93;;;41.03;;
28174;SDS011;59417;44.788;10.334;2023-02-25T10:59:38;66.40;;;40.13;;
28174;SDS011;59417;44.788;10.334;2023-02-25T11:02:56;78.30;;;44.13;;
28174;SDS011;59417;44.788;10.334;2023-02-25T11:24:34;86.22;;;48.50;;
28174;SDS011;59417;44.788;10.334;2023-02-25T11:27:58;83.07;;;47.53;;
28174;SDS011;59417;44.788;10.334;2023-02-25T11:42:00;74.25;;;45.45;;
28174;SDS011;59417;44.788;10.334;2023-02-25T11:45:15;72.68;;;43.38;;
28174;SDS011;59417;44.788;10.334;2023-02-25T11:47:44;70.28;;;42.95;;
28174;SDS011;59417;44.788;10.334;2023-02-25T11:56:31;67.93;;;42.30;;
28174;SDS011;59417;44.788;10.334;2023-02-25T12:02:59;67.82;;;39.78;;
28174;SDS011;59417;44.788;10.334;2023-02-25T12:05:51;69.80;;;38.72;;
28174;SDS011;59417;44.788;10.334;2023-02-25T12:45:23;71.13;;;40.40;;
28174;SDS011;59417;44.788;10.334;2023-02-25T13:07:37;64.75;;;37.58;;
28174;SDS011;59417;44.788;10.334;2023-02-25T13:19:08;62.00;;;37.85;;
28174;SDS011;59417;44.788;10.334;2023-02-25T13:25:49;68.10;;;38.10;;
28174;SDS011;59417;44.788;10.334;2023-02-25T14:01:14;52.17;;;30.77;;
28174;SDS011;59417;44.788;10.334;2023-02-25T14:33:30;55.78;;;30.98;;
28174;SDS011;59417;44.788;10.334;2023-02-25T14:39:20;51.95;;;32.40;;
28174;SDS011;59417;44.788;10.334;2023-02-25T15:15:42;60.75;;;37.85;;
28174;SDS011;59417;44.788;10.334;2023-02-25T15:23:56;61.65;;;37.30;;
28174;SDS011;59417;44.788;10.334;2023-02-25T15:26:49;69.35;;;37.88;;
28174;SDS011;59417;44.788;10.334;2023-02-25T15:36:18;70.22;;;36.75;;
28174;SDS011;59417;44.788;10.334;2023-02-25T15:58:51;61.92;;;37.75;;
28174;SDS011;59417;44.788;10.334;2023-02-25T16:01:44;61.05;;;37.80;;
28174;SDS011;59417;44.788;10.334;2023-02-25T16:21:44;58.28;;;34.88;;
28174;SDS011;59417;44.788;10.334;2023-02-25T16:24:15;58.40;;;34.22;;
28174;SDS011;59417;44.788;10.334;2023-02-25T16:26:47;59.83;;;34.42;;
28174;SDS011;59417;44.788;10.334;2023-02-25T16:29:24;57.13;;;36.20;;
28174;SDS011;59417;44.788;10.334;2023-02-25T16:35:23;56.97;;;32.92;;
28174;SDS011;59417;44.788;10.334;2023-02-25T16:38:33;55.70;;;33.90;;
28174;SDS011;59417;44.788;10.334;2023-02-25T16:41:19;54.90;;;33.13;;
28174;SDS011;59417;44.788;10.334;2023-02-25T16:43:53;60.00;;;34.45;;
28174;SDS011;59417;44.788;10.334;2023-02-25T16:46:22;59.63;;;36.83;;
28174;SDS011;59417;44.788;10.334;2023-02-25T16:49:16;61.92;;;35.75;;
28174;SDS011;59417;44.788;10.334;2023-02-25T16:51:45;55.42;;;34.38;;
28174;SDS011;59417;44.788;10.334;2023-02-25T16:56:48;58.35;;;33.65;;
28174;SDS011;59417;44.788;10.334;2023-02-25T16:59:20;52.45;;;33.25;;
28174;SDS011;59417;44.788;10.334;2023-02-25T17:13:38;63.42;;;34.55;;
28174;SDS011;59417;44.788;10.334;2023-02-25T17:17:04;51.78;;;33.33;;
28174;SDS011;59417;44.788;10.334;2023-02-25T17:19:32;53.15;;;33.53;;
28174;SDS011;59417;44.788;10.334;2023-02-25T17:21:58;61.55;;;33.75;;
28174;SDS011;59417;44.788;10.334;2023-02-25T17:24:28;52.47;;;34.78;;
28174;SDS011;59417;44.788;10.334;2023-02-25T17:30:00;59.47;;;34.47;;
28174;SDS011;59417;44.788;10.334;2023-02-25T17:32:30;56.65;;;34.35;;
28174;SDS011;59417;44.788;10.334;2023-02-25T17:35:05;50.85;;;35.22;;
28174;SDS011;59417;44.788;10.334;2023-02-25T17:37:49;60.67;;;34.35;;
28174;SDS011;59417;44.788;10.334;2023-02-25T17:53:37;59.58;;;36.75;;
28174;SDS011;59417;44.788;10.334;2023-02-25T17:56:26;58.67;;;34.88;;
28174;SDS011;59417;44.788;10.334;2023-02-25T17:59:02;58.15;;;35.35;;
28174;SDS011;59417;44.788;10.334;2023-02-25T18:01:49;62.20;;;34.92;;
28174;SDS011;59417;44.788;10.334;2023-02-25T18:06:58;60.92;;;37.15;;
28174;SDS011;59417;44.788;10.334;2023-02-25T18:09:46;63.95;;;37.65;;
28174;SDS011;59417;44.788;10.334;2023-02-25T18:12:26;63.85;;;37.80;;
28174;SDS011;59417;44.788;10.334;2023-02-25T18:15:17;61.50;;;38.10;;
28174;SDS011;59417;44.788;10.334;2023-02-25T18:17:55;58.35;;;37.38;;
28174;SDS011;59417;44.788;10.334;2023-02-25T18:25:42;69.65;;;39.58;;
28174;SDS011;59417;44.788;10.334;2023-02-25T18:28:17;59.58;;;38.65;;
28174;SDS011;59417;44.788;10.334;2023-02-25T18:30:50;70.00;;;40.05;;
28174;SDS011;59417;44.788;10.334;2023-02-25T18:33:17;65.40;;;39.08;;
28174;SDS011;59417;44.788;10.334;2023-02-25T18:35:44;69.10;;;40.40;;
28174;SDS011;59417;44.788;10.334;2023-02-25T18:38:15;64.13;;;42.05;;
28174;SDS011;59417;44.788;10.334;2023-02-25T18:40:43;65.82;;;39.08;;
28174;SDS011;59417;44.788;10.334;2023-02-25T18:43:12;65.80;;;40.53;;
28174;SDS011;59417;44.788;10.334;2023-02-25T18:45:41;64.72;;;40.00;;
28174;SDS011;59417;44.788;10.334;2023-02-25T18:48:07;68.93;;;42.10;;
28174;SDS011;59417;44.788;10.334;2023-02-25T18:50:33;66.85;;;40.33;;
28174;SDS011;59417;44.788;10.334;2023-02-25T18:52:58;74.50;;;42.03;;
28174;SDS011;59417;44.788;10.334;2023-02-25T18:55:29;65.22;;;41.53;;
28174;SDS011;59417;44.788;10.334;2023-02-25T18:57:56;68.78;;;41.83;;
28174;SDS011;59417;44.788;10.334;2023-02-25T19:00:23;66.00;;;42.75;;
28174;SDS011;59417;44.788;10.334;2023-02-25T19:02:55;63.75;;;43.15;;
28174;SDS011;59417;44.788;10.334;2023-02-25T19:05:23;70.73;;;43.67;;
28174;SDS011;59417;44.788;10.334;2023-02-25T19:07:49;75.57;;;44.40;;
28174;SDS011;59417;44.788;10.334;2023-02-25T19:10:19;77.55;;;44.10;;
28174;SDS011;59417;44.788;10.334;2023-02-25T19:12:50;72.43;;;43.80;;
28174;SDS011;59417;44.788;10.334;2023-02-25T19:15:28;75.03;;;45.55;;
28174;SDS011;59417;44.788;10.334;2023-02-25T19:17:54;65.57;;;43.22;;
28174;SDS011;59417;44.788;10.334;2023-02-25T19:20:20;73.63;;;42.28;;
28174;SDS011;59417;44.788;10.334;2023-02-25T19:22:50;74.90;;;44.13;;
28174;SDS011;59417;44.788;10.334;2023-02-25T19:27:51;74.65;;;44.92;;
28174;SDS011;59417;44.788;10.334;2023-02-25T19:30:19;69.03;;;45.05;;
28174;SDS011;59417;44.788;10.334;2023-02-25T19:35:13;78.50;;;43.13;;
28174;SDS011;59417;44.788;10.334;2023-02-25T19:40:41;81.93;;;46.88;;
28174;SDS011;59417;44.788;10.334;2023-02-25T19:43:33;77.68;;;45.63;;
28174;SDS011;59417;44.788;10.334;2023-02-25T19:45:59;74.43;;;45.53;;
28174;SDS011;59417;44.788;10.334;2023-02-25T19:48:25;76.43;;;45.45;;
28174;SDS011;59417;44.788;10.334;2023-02-25T19:50:52;82.45;;;49.33;;
28174;SDS011;59417;44.788;10.334;2023-02-25T19:53:17;82.40;;;46.78;;
28174;SDS011;59417;44.788;10.334;2023-02-25T19:55:43;83.45;;;47.90;;
28174;SDS011;59417;44.788;10.334;2023-02-25T19:58:09;82.60;;;49.65;;
28174;SDS011;59417;44.788;10.334;2023-02-25T20:00:34;83.72;;;47.05;;
28174;SDS011;59417;44.788;10.334;2023-02-25T20:03:00;84.75;;;50.05;;
28174;SDS011;59417;44.788;10.334;2023-02-25T20:05:26;81.85;;;50.05;;
28174;SDS011;59417;44.788;10.334;2023-02-25T20:07:51;77.90;;;47.95;;
28174;SDS011;59417;44.788;10.334;2023-02-25T20:10:17;82.90;;;49.60;;
28174;SDS011;59417;44.788;10.334;2023-02-25T20:12:43;88.00;;;50.83;;
28174;SDS011;59417;44.788;10.334;2023-02-25T20:15:10;77.00;;;47.60;;
28174;SDS011;59417;44.788;10.334;2023-02-25T20:17:38;86.15;;;50.38;;
28174;SDS011;59417;44.788;10.334;2023-02-25T20:20:05;80.43;;;49.05;;
28174;SDS011;59417;44.788;10.334;2023-02-25T20:22:33;88.28;;;51.42;;
28174;SDS011;59417;44.788;10.334;2023-02-25T20:25:02;81.82;;;49.22;;
28174;SDS011;59417;44.788;10.334;2023-02-25T20:27:29;76.30;;;48.95;;
28174;SDS011;59417;44.788;10.334;2023-02-25T20:29:55;77.00;;;46.20;;
28174;SDS011;59417;44.788;10.334;2023-02-25T20:32:20;74.43;;;46.72;;
28174;SDS011;59417;44.788;10.334;2023-02-25T20:34:46;73.80;;;46.78;;
28174;SDS011;59417;44.788;10.334;2023-02-25T20:39:43;78.80;;;48.90;;
28174;SDS011;59417;44.788;10.334;2023-02-25T20:42:15;76.20;;;47.40;;
28174;SDS011;59417;44.788;10.334;2023-02-25T20:44:48;75.72;;;48.60;;
28174;SDS011;59417;44.788;10.334;2023-02-25T20:47:18;81.57;;;46.72;;
28174;SDS011;59417;44.788;10.334;2023-02-25T20:49:51;80.93;;;47.72;;
28174;SDS011;59417;44.788;10.334;2023-02-25T20:52:19;82.00;;;48.50;;
28174;SDS011;59417;44.788;10.334;2023-02-25T20:54:45;74.03;;;48.60;;
28174;SDS011;59417;44.788;10.334;2023-02-25T20:57:13;72.90;;;45.92;;
28174;SDS011;59417;44.788;10.334;2023-02-25T20:59:41;78.85;;;46.03;;
28174;SDS011;59417;44.788;10.334;2023-02-25T21:02:06;72.57;;;45.40;;
28174;SDS011;59417;44.788;10.334;2023-02-25T21:04:32;74.97;;;45.65;;
28174;SDS011;59417;44.788;10.334;2023-02-25T21:06:58;70.38;;;43.53;;
28174;SDS011;59417;44.788;10.334;2023-02-25T21:09:24;71.78;;;44.85;;
28174;SDS011;59417;44.788;10.334;2023-02-25T21:11:50;76.65;;;45.40;;
28174;SDS011;59417;44.788;10.334;2023-02-25T21:14:15;76.38;;;47.22;;
28174;SDS011;59417;44.788;10.334;2023-02-25T21:16:41;79.95;;;45.50;;
28174;SDS011;59417;44.788;10.334;2023-02-25T21:19:07;72.82;;;46.90;;
28174;SDS011;59417;44.788;10.334;2023-02-25T21:21:32;71.80;;;45.55;;
28174;SDS011;59417;44.788;10.334;2023-02-25T21:24:07;78.95;;;45.85;;
28174;SDS011;59417;44.788;10.334;2023-02-25T21:27:00;76.85;;;45.90;;
28174;SDS011;59417;44.788;10.334;2023-02-25T21:30:04;75.93;;;46.10;;
28174;SDS011;59417;44.788;10.334;2023-02-25T21:33:12;72.65;;;43.70;;